Flight Track Log - Related Links

Times and Time Zones

All times are in EDT time to prevent confusion due to time zone crossing. See the JBU51 flight status page for this flight to view local times or setup timezone preferences in your user account.


Time Position Orientation Groundspeed Altitude Reporting Facility
EDT Latitude Longitude Course Direction KTS MPH feet Rate Location/Type
Wed 12:13:00 PM 44.1567 -73.2663 195° South  Level FlightAware Approximate
Wed 12:13:03 PM 44.3319 -73.1511 196° South 267 307 6,700  Level Boston Center
Wed 12:14:00 PM 44.0787 -73.2955 195° South  Level FlightAware Approximate
Wed 12:14:03 PM 44.2839 -73.1708 196° South 273 314 8,900  Level Boston Center
Wed 12:15:00 PM 44.0003 -73.3222 194° South  Level FlightAware Approximate
Wed 12:15:15 PM 44.1817 -73.2131 197° South 292 336 11,800  Level Boston Center
Wed 12:16:00 PM 43.9217 -73.3483 193° South  Level FlightAware Approximate
Wed 12:16:15 PM 44.0731 -73.2608 198° South 326 375 15,300  Level Boston Center
Wed 12:17:00 PM 43.8441 -73.3792 196° South  Level FlightAware Approximate
Wed 12:17:15 PM 43.9811 -73.2969 196° South 342 394 17,800  Level Boston Center
Wed 12:18:00 PM 43.7666 -73.4102 196° South  Level FlightAware Approximate
Wed 12:18:15 PM 43.8847 -73.3389 197° South 352 405 19,800  Level Boston Center
Wed 12:19:15 PM 43.7844 -73.3806 197° South 365 420 21,800 1,950 Climbing Boston Center
Wed 12:20:15 PM 43.6986 -73.4394 206° Southwest 376 433 23,700 1,750 Climbing Boston Center
Wed 12:21:15 PM 43.5956 -73.5408 215° Southwest 388 447 25,300 1,650 Climbing Boston Center
Wed 12:22:15 PM 43.4928 -73.6047 204° Southwest 411 473 27,000 1,350 Climbing Boston Center
Wed 12:23:15 PM 43.3778 -73.6369 192° South 411 473 28,000 500 Climbing Boston Center
Wed 12:24:15 PM 43.2650 -73.6661 191° South 416 479 28,000  Level Boston Center
Wed 12:25:15 PM 43.1500 -73.6950 190° South 421 484 28,000  Level Boston Center
Wed 12:26:15 PM 43.0433 -73.7242 191° South 427 491 28,000  Level Boston Center
Wed 12:27:15 PM 42.9283 -73.7558 191° South 427 491 28,000  Level Boston Center
Wed 12:28:15 PM 42.8156 -73.7872 192° South 427 491 28,000  Level Boston Center
Wed 12:29:15 PM 42.6986 -73.8075 187° South 427 491 28,000  Level Boston Center
Wed 12:30:15 PM 42.5858 -73.8106 181° South 427 491 28,000  Level Boston Center
Wed 12:31:15 PM 42.4669 -73.8306 187° South 401 461 28,000  Level Boston Center
Wed 12:32:15 PM 42.3708 -73.8564 191° South 379 436 28,000  Level Boston Center
Wed 12:33:15 PM 42.2703 -73.8822 191° South 368 423 28,000 -800 Level Boston Center
Wed 12:34:15 PM 42.1761 -73.9108 193° South 363 418 26,400 -1,700 Descending Boston Center
Wed 12:35:15 PM 42.0842 -73.9367 192° South 352 405 24,600 -1,300 Descending Boston Center
Wed 12:36:15 PM 41.9942 -73.9625 192° South 342 394 23,800 -1,200 Descending Boston Center
Wed 12:37:15 PM 41.9147 -73.9800 189° South 323 372 22,200 -1,550 Descending Boston Center
Wed 12:38:15 PM 41.8353 -74.0033 192° South 302 348 20,700 -1,100 Descending Boston Center
Wed 12:39:15 PM 41.7661 -74.0211 191° South 284 327 20,000 -350 Descending Boston Center
Wed 12:40:15 PM 41.6928 -74.0497 196° South 271 312 20,000  Level Boston Center
Wed 12:41:15 PM 41.6622 -74.1489 248° West 258 297 20,000  Level Boston Center
Wed 12:42:15 PM 41.6833 -74.2664 284° West 257 296 20,000  Level Boston Center
Wed 12:43:15 PM 41.7489 -74.3378 321° Northwest 257 296 20,000  Level Boston Center
Wed 12:44:15 PM 41.7794 -74.2442 66° East 122 140 20,000  Level Boston Center
Wed 12:45:15 PM 41.7542 -74.1403 108° East 161 185 20,000  Level Boston Center
Wed 12:47:42 PM 41.6078 -74.0450 154° Southeast 226 260 20,000  Level New York Center
Wed 12:48:42 PM 41.5344 -74.0525 184° South 253 291 20,000  Level New York Center
Wed 12:49:42 PM 41.4428 -74.0589 183° South 300 345 20,000  Level New York Center
Wed 12:50:43 PM 41.3564 -74.0906 195° South 324 373 20,000  Level New York Center
Wed 12:51:44 PM 41.2661 -74.1164 192° South 329 379 20,000  Level New York Center
Wed 12:52:41 PM 41.1781 -74.1425 193° South 329 379 20,000  Level New York Center
Wed 12:53:42 PM 41.0897 -74.1683 192° South 329 379 20,000 -366 Level New York Center
Wed 12:54:03 PM 41.0500 -74.1833 196° South 325 374 19,500 -741 Descending New York TRACON
Wed 12:55:03 PM 40.9667 -74.1500 163° South 295 339 19,000 -952 Descending New York TRACON
Wed 12:56:09 PM 40.8833 -74.1000 156° South 276 318 17,500 -1,364 Descending New York TRACON
Wed 12:57:15 PM 40.8167 -74.0500 150° Southeast 285 328 16,000 -750 Descending New York TRACON
Wed 12:58:09 PM 40.7833 -73.9667 118° Southeast 308 354 16,000 -474 Level New York TRACON
Wed 12:59:09 PM 40.7833 -73.8667 90° East 310 357 15,100 -1,150 Descending New York TRACON
Wed 01:00:09 PM 40.7500 -73.7667 114° Southeast 290 334 13,700 -1,105 Descending New York TRACON
Wed 01:01:03 PM 40.7167 -73.7000 123° Southeast 298 343 13,000 -900 Descending New York TRACON
Wed 01:02:09 PM 40.6500 -73.6167 137° Southeast 279 321 11,900 -1,500 Descending New York TRACON
Wed 01:03:03 PM 40.6000 -73.5667 143° Southeast 270 311 10,000 -2,150 Descending New York TRACON
Wed 01:04:09 PM 40.5167 -73.5500 171° South 266 306 7,600 -1,950 Descending New York TRACON
Wed 01:05:03 PM 40.4667 -73.5833 207° Southwest 258 297 6,100 -1,800 Descending New York TRACON
Wed 01:06:09 PM 40.4000 -73.6500 217° Southwest 256 295 4,000 -1,550 Descending New York TRACON
Wed 01:07:03 PM 40.3833 -73.7333 255° West 255 293 3,000 -842 Descending New York TRACON
Wed 01:08:03 PM 40.4000 -73.8000 288° West 223 257 2,400 -500 Descending New York TRACON
Wed 01:09:03 PM 40.4167 -73.8667 288° West 198 228 2,000 -400 Descending New York TRACON

Login

Don't have an account? Register now (free) for customized features, flight alerts, and more!